sensor_id;sensor_type;location;lat;lon;timestamp;P1;durP1;ratioP1;P2;durP2;ratioP2
29568;SDS011;16501;51.462;14.346;2022-08-11T00:01:44;5.55;;;3.40;;
29568;SDS011;16501;51.462;14.346;2022-08-11T00:04:12;11.63;;;3.58;;
29568;SDS011;16501;51.462;14.346;2022-08-11T00:06:39;7.57;;;3.55;;
29568;SDS011;16501;51.462;14.346;2022-08-11T00:09:10;11.00;;;3.63;;
29568;SDS011;16501;51.462;14.346;2022-08-11T00:11:51;6.28;;;3.53;;
29568;SDS011;16501;51.462;14.346;2022-08-11T00:14:22;8.93;;;3.53;;
29568;SDS011;16501;51.462;14.346;2022-08-11T00:19:31;10.32;;;3.33;;
29568;SDS011;16501;51.462;14.346;2022-08-11T00:21:59;6.72;;;3.83;;
29568;SDS011;16501;51.462;14.346;2022-08-11T00:24:31;10.43;;;3.33;;
29568;SDS011;16501;51.462;14.346;2022-08-11T00:27:01;9.30;;;4.05;;
29568;SDS011;16501;51.462;14.346;2022-08-11T00:29:27;9.52;;;4.07;;
29568;SDS011;16501;51.462;14.346;2022-08-11T00:31:54;7.63;;;3.75;;
29568;SDS011;16501;51.462;14.346;2022-08-11T00:34:22;8.68;;;3.45;;
29568;SDS011;16501;51.462;14.346;2022-08-11T00:36:52;5.45;;;3.70;;
29568;SDS011;16501;51.462;14.346;2022-08-11T00:39:41;8.00;;;4.05;;
29568;SDS011;16501;51.462;14.346;2022-08-11T00:45:01;15.07;;;4.93;;
29568;SDS011;16501;51.462;14.346;2022-08-11T01:04:19;12.23;;;4.82;;
29568;SDS011;16501;51.462;14.346;2022-08-11T01:12:37;12.70;;;3.83;;
29568;SDS011;16501;51.462;14.346;2022-08-11T01:35:34;12.40;;;4.95;;
29568;SDS011;16501;51.462;14.346;2022-08-11T01:38:57;12.23;;;4.25;;
29568;SDS011;16501;51.462;14.346;2022-08-11T01:41:52;14.05;;;4.55;;
29568;SDS011;16501;51.462;14.346;2022-08-11T01:45:02;15.52;;;4.15;;
29568;SDS011;16501;51.462;14.346;2022-08-11T01:51:10;9.63;;;3.85;;
29568;SDS011;16501;51.462;14.346;2022-08-11T02:02:13;15.07;;;4.32;;
29568;SDS011;16501;51.462;14.346;2022-08-11T02:19:53;6.45;;;4.00;;
29568;SDS011;16501;51.462;14.346;2022-08-11T02:26:02;6.30;;;4.57;;
29568;SDS011;16501;51.462;14.346;2022-08-11T02:28:41;9.10;;;4.80;;
29568;SDS011;16501;51.462;14.346;2022-08-11T02:34:12;6.35;;;4.45;;
29568;SDS011;16501;51.462;14.346;2022-08-11T02:37:00;14.30;;;5.22;;
29568;SDS011;16501;51.462;14.346;2022-08-11T02:39:41;10.63;;;5.10;;
29568;SDS011;16501;51.462;14.346;2022-08-11T02:42:22;10.02;;;4.75;;
29568;SDS011;16501;51.462;14.346;2022-08-11T02:50:55;9.73;;;5.70;;
29568;SDS011;16501;51.462;14.346;2022-08-11T02:59:15;8.32;;;4.30;;
29568;SDS011;16501;51.462;14.346;2022-08-11T03:02:12;12.23;;;4.32;;
29568;SDS011;16501;51.462;14.346;2022-08-11T03:04:48;10.38;;;4.63;;
29568;SDS011;16501;51.462;14.346;2022-08-11T03:12:59;9.45;;;5.05;;
29568;SDS011;16501;51.462;14.346;2022-08-11T03:19:11;11.82;;;4.30;;
29568;SDS011;16501;51.462;14.346;2022-08-11T03:22:04;9.48;;;4.63;;
29568;SDS011;16501;51.462;14.346;2022-08-11T03:24:57;11.10;;;4.95;;
29568;SDS011;16501;51.462;14.346;2022-08-11T03:30:09;10.80;;;4.82;;
29568;SDS011;16501;51.462;14.346;2022-08-11T03:32:59;17.15;;;5.07;;
29568;SDS011;16501;51.462;14.346;2022-08-11T03:38:42;13.15;;;5.15;;
29568;SDS011;16501;51.462;14.346;2022-08-11T03:41:20;13.05;;;4.82;;
29568;SDS011;16501;51.462;14.346;2022-08-11T03:44:27;7.72;;;4.95;;
29568;SDS011;16501;51.462;14.346;2022-08-11T03:55:14;10.20;;;5.20;;
29568;SDS011;16501;51.462;14.346;2022-08-11T04:00:38;14.25;;;5.40;;
29568;SDS011;16501;51.462;14.346;2022-08-11T04:08:53;11.65;;;5.30;;
29568;SDS011;16501;51.462;14.346;2022-08-11T04:11:49;8.70;;;5.00;;
29568;SDS011;16501;51.462;14.346;2022-08-11T04:17:58;9.00;;;5.03;;
29568;SDS011;16501;51.462;14.346;2022-08-11T04:20:52;8.15;;;4.65;;
29568;SDS011;16501;51.462;14.346;2022-08-11T04:23:40;9.60;;;5.60;;
29568;SDS011;16501;51.462;14.346;2022-08-11T04:26:37;17.55;;;5.65;;
29568;SDS011;16501;51.462;14.346;2022-08-11T04:41:24;9.85;;;5.10;;
29568;SDS011;16501;51.462;14.346;2022-08-11T04:56:43;13.15;;;5.55;;
29568;SDS011;16501;51.462;14.346;2022-08-11T04:59:52;8.43;;;5.18;;
29568;SDS011;16501;51.462;14.346;2022-08-11T05:06:09;25.60;;;5.78;;
29568;SDS011;16501;51.462;14.346;2022-08-11T05:08:49;11.50;;;4.82;;
29568;SDS011;16501;51.462;14.346;2022-08-11T05:11:38;11.50;;;5.05;;
29568;SDS011;16501;51.462;14.346;2022-08-11T05:17:08;10.52;;;4.57;;
29568;SDS011;16501;51.462;14.346;2022-08-11T05:19:54;18.55;;;5.45;;
29568;SDS011;16501;51.462;14.346;2022-08-11T05:22:41;7.10;;;4.90;;
29568;SDS011;16501;51.462;14.346;2022-08-11T05:25:38;11.25;;;5.22;;
29568;SDS011;16501;51.462;14.346;2022-08-11T05:28:31;5.75;;;5.00;;
29568;SDS011;16501;51.462;14.346;2022-08-11T05:31:36;7.53;;;4.72;;
29568;SDS011;16501;51.462;14.346;2022-08-11T05:34:24;6.53;;;4.40;;
29568;SDS011;16501;51.462;14.346;2022-08-11T05:37:16;10.45;;;5.05;;
29568;SDS011;16501;51.462;14.346;2022-08-11T05:39:48;7.80;;;4.72;;
29568;SDS011;16501;51.462;14.346;2022-08-11T05:42:37;9.13;;;5.00;;
29568;SDS011;16501;51.462;14.346;2022-08-11T05:45:33;6.75;;;4.97;;
29568;SDS011;16501;51.462;14.346;2022-08-11T05:48:19;14.77;;;4.70;;
29568;SDS011;16501;51.462;14.346;2022-08-11T05:51:04;15.00;;;5.50;;
29568;SDS011;16501;51.462;14.346;2022-08-11T05:53:52;14.30;;;5.47;;
29568;SDS011;16501;51.462;14.346;2022-08-11T05:56:53;13.88;;;4.57;;
29568;SDS011;16501;51.462;14.346;2022-08-11T05:59:20;10.40;;;4.83;;
29568;SDS011;16501;51.462;14.346;2022-08-11T06:01:49;8.13;;;4.70;;
29568;SDS011;16501;51.462;14.346;2022-08-11T06:04:18;10.20;;;5.07;;
29568;SDS011;16501;51.462;14.346;2022-08-11T06:09:26;7.85;;;4.57;;
29568;SDS011;16501;51.462;14.346;2022-08-11T06:11:52;10.52;;;4.65;;
29568;SDS011;16501;51.462;14.346;2022-08-11T06:14:21;11.10;;;4.68;;
29568;SDS011;16501;51.462;14.346;2022-08-11T06:16:48;10.15;;;5.97;;
29568;SDS011;16501;51.462;14.346;2022-08-11T06:19:18;7.75;;;4.88;;
29568;SDS011;16501;51.462;14.346;2022-08-11T06:21:47;7.95;;;4.13;;
29568;SDS011;16501;51.462;14.346;2022-08-11T06:24:16;11.80;;;4.97;;
29568;SDS011;16501;51.462;14.346;2022-08-11T06:26:51;11.00;;;4.78;;
29568;SDS011;16501;51.462;14.346;2022-08-11T06:29:18;16.95;;;5.10;;
29568;SDS011;16501;51.462;14.346;2022-08-11T06:31:51;9.02;;;4.82;;
29568;SDS011;16501;51.462;14.346;2022-08-11T06:34:27;6.95;;;4.10;;
29568;SDS011;16501;51.462;14.346;2022-08-11T06:40:24;7.78;;;4.40;;
29568;SDS011;16501;51.462;14.346;2022-08-11T06:43:50;10.20;;;4.50;;
29568;SDS011;16501;51.462;14.346;2022-08-11T06:46:28;8.30;;;5.07;;
29568;SDS011;16501;51.462;14.346;2022-08-11T06:48:59;6.88;;;4.18;;
29568;SDS011;16501;51.462;14.346;2022-08-11T06:51:27;5.50;;;4.30;;
29568;SDS011;16501;51.462;14.346;2022-08-11T06:53:53;7.68;;;4.28;;
29568;SDS011;16501;51.462;14.346;2022-08-11T06:56:22;5.95;;;4.63;;
29568;SDS011;16501;51.462;14.346;2022-08-11T06:59:09;9.38;;;4.80;;
29568;SDS011;16501;51.462;14.346;2022-08-11T07:02:05;9.57;;;4.70;;
29568;SDS011;16501;51.462;14.346;2022-08-11T07:04:41;6.85;;;4.03;;
29568;SDS011;16501;51.462;14.346;2022-08-11T07:13:42;9.95;;;3.42;;
29568;SDS011;16501;51.462;14.346;2022-08-11T07:16:30;6.78;;;3.28;;
29568;SDS011;16501;51.462;14.346;2022-08-11T07:19:02;10.32;;;3.33;;
29568;SDS011;16501;51.462;14.346;2022-08-11T07:21:49;8.43;;;3.45;;
29568;SDS011;16501;51.462;14.346;2022-08-11T07:24:35;6.22;;;2.97;;
29568;SDS011;16501;51.462;14.346;2022-08-11T07:27:35;8.30;;;2.75;;
29568;SDS011;16501;51.462;14.346;2022-08-11T07:30:26;6.25;;;3.25;;
29568;SDS011;16501;51.462;14.346;2022-08-11T07:32:54;14.85;;;3.72;;
29568;SDS011;16501;51.462;14.346;2022-08-11T07:38:00;6.55;;;3.33;;
29568;SDS011;16501;51.462;14.346;2022-08-11T07:40:28;10.52;;;3.40;;
29568;SDS011;16501;51.462;14.346;2022-08-11T07:42:54;5.05;;;2.88;;
29568;SDS011;16501;51.462;14.346;2022-08-11T07:45:23;16.23;;;3.95;;
29568;SDS011;16501;51.462;14.346;2022-08-11T07:48:08;5.88;;;3.17;;
29568;SDS011;16501;51.462;14.346;2022-08-11T07:50:54;13.20;;;3.30;;
29568;SDS011;16501;51.462;14.346;2022-08-11T07:53:39;10.45;;;3.15;;
29568;SDS011;16501;51.462;14.346;2022-08-11T07:56:06;15.32;;;3.08;;
29568;SDS011;16501;51.462;14.346;2022-08-11T07:58:33;11.73;;;3.65;;
29568;SDS011;16501;51.462;14.346;2022-08-11T08:01:20;11.63;;;3.33;;
29568;SDS011;16501;51.462;14.346;2022-08-11T08:04:07;6.85;;;2.90;;
29568;SDS011;16501;51.462;14.346;2022-08-11T08:06:53;11.57;;;3.28;;
29568;SDS011;16501;51.462;14.346;2022-08-11T08:09:38;13.77;;;4.20;;
29568;SDS011;16501;51.462;14.346;2022-08-11T08:12:24;5.00;;;2.97;;
29568;SDS011;16501;51.462;14.346;2022-08-11T08:15:09;7.88;;;3.03;;
29568;SDS011;16501;51.462;14.346;2022-08-11T08:17:58;3.50;;;2.30;;
29568;SDS011;16501;51.462;14.346;2022-08-11T08:20:28;6.00;;;2.55;;
29568;SDS011;16501;51.462;14.346;2022-08-11T08:23:00;6.07;;;2.65;;
29568;SDS011;16501;51.462;14.346;2022-08-11T08:25:34;6.10;;;2.58;;
29568;SDS011;16501;51.462;14.346;2022-08-11T08:28:05;5.45;;;2.25;;
29568;SDS011;16501;51.462;14.346;2022-08-11T08:30:34;6.38;;;2.17;;
29568;SDS011;16501;51.462;14.346;2022-08-11T08:33:24;4.97;;;2.33;;
29568;SDS011;16501;51.462;14.346;2022-08-11T08:36:01;9.32;;;2.30;;
29568;SDS011;16501;51.462;14.346;2022-08-11T08:38:48;8.60;;;3.35;;
29568;SDS011;16501;51.462;14.346;2022-08-11T08:41:21;8.45;;;2.72;;
29568;SDS011;16501;51.462;14.346;2022-08-11T08:43:51;5.95;;;2.33;;
29568;SDS011;16501;51.462;14.346;2022-08-11T08:46:25;6.70;;;2.20;;
29568;SDS011;16501;51.462;14.346;2022-08-11T08:49:01;3.80;;;1.85;;
29568;SDS011;16501;51.462;14.346;2022-08-11T08:51:28;3.55;;;1.88;;
29568;SDS011;16501;51.462;14.346;2022-08-11T09:24:17;11.60;;;2.08;;
29568;SDS011;16501;51.462;14.346;2022-08-11T09:27:05;5.35;;;1.70;;
29568;SDS011;16501;51.462;14.346;2022-08-11T09:29:32;3.95;;;1.60;;
29568;SDS011;16501;51.462;14.346;2022-08-11T09:32:05;4.10;;;1.63;;
29568;SDS011;16501;51.462;14.346;2022-08-11T09:34:34;9.43;;;1.17;;
29568;SDS011;16501;51.462;14.346;2022-08-11T09:37:05;3.15;;;1.10;;
29568;SDS011;16501;51.462;14.346;2022-08-11T09:39:51;3.33;;;1.40;;
29568;SDS011;16501;51.462;14.346;2022-08-11T09:42:39;4.57;;;1.40;;
29568;SDS011;16501;51.462;14.346;2022-08-11T09:45:24;1.48;;;1.05;;
29568;SDS011;16501;51.462;14.346;2022-08-11T09:47:50;1.20;;;1.10;;
29568;SDS011;16501;51.462;14.346;2022-08-11T09:50:15;2.50;;;1.33;;
29568;SDS011;16501;51.462;14.346;2022-08-11T09:52:43;5.95;;;1.08;;
29568;SDS011;16501;51.462;14.346;2022-08-11T09:55:13;2.13;;;1.10;;
29568;SDS011;16501;51.462;14.346;2022-08-11T09:57:40;1.92;;;1.30;;
29568;SDS011;16501;51.462;14.346;2022-08-11T10:00:30;3.85;;;1.55;;
29568;SDS011;16501;51.462;14.346;2022-08-11T10:03:02;4.28;;;1.20;;
29568;SDS011;16501;51.462;14.346;2022-08-11T10:05:32;6.00;;;1.33;;
29568;SDS011;16501;51.462;14.346;2022-08-11T10:08:18;2.85;;;1.20;;
29568;SDS011;16501;51.462;14.346;2022-08-11T10:10:47;1.45;;;1.10;;
29568;SDS011;16501;51.462;14.346;2022-08-11T10:13:17;2.67;;;0.90;;
29568;SDS011;16501;51.462;14.346;2022-08-11T10:15:47;2.95;;;1.02;;
29568;SDS011;16501;51.462;14.346;2022-08-11T10:18:14;1.25;;;0.98;;
29568;SDS011;16501;51.462;14.346;2022-08-11T10:21:02;8.25;;;1.42;;
29568;SDS011;16501;51.462;14.346;2022-08-11T10:26:19;4.15;;;1.13;;
29568;SDS011;16501;51.462;14.346;2022-08-11T10:29:05;4.22;;;0.77;;
29568;SDS011;16501;51.462;14.346;2022-08-11T10:31:52;50.92;;;2.97;;
29568;SDS011;16501;51.462;14.346;2022-08-11T10:34:38;5.38;;;1.20;;
29568;SDS011;16501;51.462;14.346;2022-08-11T10:37:04;4.15;;;1.20;;
29568;SDS011;16501;51.462;14.346;2022-08-11T10:39:32;2.35;;;1.30;;
29568;SDS011;16501;51.462;14.346;2022-08-11T10:42:01;3.67;;;1.30;;
29568;SDS011;16501;51.462;14.346;2022-08-11T10:44:50;3.65;;;1.30;;
29568;SDS011;16501;51.462;14.346;2022-08-11T10:47:18;4.68;;;1.25;;
29568;SDS011;16501;51.462;14.346;2022-08-11T10:50:12;1.42;;;0.90;;
29568;SDS011;16501;51.462;14.346;2022-08-11T10:52:57;2.53;;;1.20;;
29568;SDS011;16501;51.462;14.346;2022-08-11T10:55:43;3.88;;;1.20;;
29568;SDS011;16501;51.462;14.346;2022-08-11T10:58:31;4.97;;;1.00;;
29568;SDS011;16501;51.462;14.346;2022-08-11T11:03:55;30.02;;;3.13;;
29568;SDS011;16501;51.462;14.346;2022-08-11T11:11:43;5.82;;;1.60;;
29568;SDS011;16501;51.462;14.346;2022-08-11T11:14:31;1.67;;;1.52;;
29568;SDS011;16501;51.462;14.346;2022-08-11T11:17:22;2.58;;;1.58;;
29568;SDS011;16501;51.462;14.346;2022-08-11T11:20:20;5.82;;;1.17;;
29568;SDS011;16501;51.462;14.346;2022-08-11T11:22:50;4.95;;;1.45;;
29568;SDS011;16501;51.462;14.346;2022-08-11T11:25:27;3.67;;;1.38;;
29568;SDS011;16501;51.462;14.346;2022-08-11T11:34:26;1.48;;;1.15;;
29568;SDS011;16501;51.462;14.346;2022-08-11T11:37:15;1.67;;;1.40;;
29568;SDS011;16501;51.462;14.346;2022-08-11T11:39:44;5.30;;;1.40;;
29568;SDS011;16501;51.462;14.346;2022-08-11T11:42:10;5.68;;;1.33;;
29568;SDS011;16501;51.462;14.346;2022-08-11T11:44:36;2.30;;;1.30;;
29568;SDS011;16501;51.462;14.346;2022-08-11T11:47:05;4.72;;;1.27;;
29568;SDS011;16501;51.462;14.346;2022-08-11T11:49:40;3.55;;;1.30;;
29568;SDS011;16501;51.462;14.346;2022-08-11T11:52:12;1.95;;;1.20;;
29568;SDS011;16501;51.462;14.346;2022-08-11T11:54:49;3.95;;;1.70;;
29568;SDS011;16501;51.462;14.346;2022-08-11T11:57:20;6.82;;;1.50;;
29568;SDS011;16501;51.462;14.346;2022-08-11T12:00:10;3.90;;;1.30;;
29568;SDS011;16501;51.462;14.346;2022-08-11T12:02:57;8.75;;;1.92;;
29568;SDS011;16501;51.462;14.346;2022-08-11T12:05:36;3.22;;;1.40;;
29568;SDS011;16501;51.462;14.346;2022-08-11T12:08:11;4.75;;;1.48;;
29568;SDS011;16501;51.462;14.346;2022-08-11T12:10:56;7.18;;;1.50;;
29568;SDS011;16501;51.462;14.346;2022-08-11T12:13:44;2.60;;;1.70;;
29568;SDS011;16501;51.462;14.346;2022-08-11T12:16:15;3.65;;;1.30;;
29568;SDS011;16501;51.462;14.346;2022-08-11T12:18:59;5.72;;;1.20;;
29568;SDS011;16501;51.462;14.346;2022-08-11T12:21:28;7.82;;;1.42;;
29568;SDS011;16501;51.462;14.346;2022-08-11T12:23:59;5.70;;;0.90;;
29568;SDS011;16501;51.462;14.346;2022-08-11T12:26:47;5.97;;;1.80;;
29568;SDS011;16501;51.462;14.346;2022-08-11T12:29:38;1.40;;;1.10;;
29568;SDS011;16501;51.462;14.346;2022-08-11T12:32:05;6.45;;;1.38;;
29568;SDS011;16501;51.462;14.346;2022-08-11T12:34:37;2.40;;;1.15;;
29568;SDS011;16501;51.462;14.346;2022-08-11T12:37:06;4.43;;;1.35;;
29568;SDS011;16501;51.462;14.346;2022-08-11T12:39:37;1.92;;;1.40;;
29568;SDS011;16501;51.462;14.346;2022-08-11T12:42:26;1.45;;;1.02;;
29568;SDS011;16501;51.462;14.346;2022-08-11T13:19:10;4.03;;;1.30;;
29568;SDS011;16501;51.462;14.346;2022-08-11T13:21:37;2.75;;;1.27;;
29568;SDS011;16501;51.462;14.346;2022-08-11T13:24:06;1.38;;;1.20;;
29568;SDS011;16501;51.462;14.346;2022-08-11T13:26:34;8.18;;;1.20;;
29568;SDS011;16501;51.462;14.346;2022-08-11T13:29:03;4.90;;;1.23;;
29568;SDS011;16501;51.462;14.346;2022-08-11T13:31:31;4.00;;;1.40;;
29568;SDS011;16501;51.462;14.346;2022-08-11T13:33:59;3.78;;;1.30;;
29568;SDS011;16501;51.462;14.346;2022-08-11T13:36:25;3.72;;;1.50;;
29568;SDS011;16501;51.462;14.346;2022-08-11T13:38:57;1.73;;;1.10;;
29568;SDS011;16501;51.462;14.346;2022-08-11T13:41:27;1.30;;;0.77;;
29568;SDS011;16501;51.462;14.346;2022-08-11T13:44:10;2.78;;;1.15;;
29568;SDS011;16501;51.462;14.346;2022-08-11T13:46:40;2.88;;;1.20;;
29568;SDS011;16501;51.462;14.346;2022-08-11T13:49:17;1.58;;;1.02;;
29568;SDS011;16501;51.462;14.346;2022-08-11T13:51:46;2.55;;;1.13;;
29568;SDS011;16501;51.462;14.346;2022-08-11T13:54:16;1.60;;;1.35;;
29568;SDS011;16501;51.462;14.346;2022-08-11T13:56:49;5.80;;;1.20;;
29568;SDS011;16501;51.462;14.346;2022-08-11T13:59:23;2.75;;;1.52;;
29568;SDS011;16501;51.462;14.346;2022-08-11T14:01:54;2.72;;;1.35;;
29568;SDS011;16501;51.462;14.346;2022-08-11T14:06:55;4.28;;;1.50;;
29568;SDS011;16501;51.462;14.346;2022-08-11T14:09:25;3.65;;;1.33;;
29568;SDS011;16501;51.462;14.346;2022-08-11T14:11:55;5.30;;;1.52;;
29568;SDS011;16501;51.462;14.346;2022-08-11T14:14:41;5.38;;;1.50;;
29568;SDS011;16501;51.462;14.346;2022-08-11T14:17:11;2.38;;;1.50;;
29568;SDS011;16501;51.462;14.346;2022-08-11T14:19:40;2.95;;;1.50;;
29568;SDS011;16501;51.462;14.346;2022-08-11T14:22:08;4.32;;;1.50;;
29568;SDS011;16501;51.462;14.346;2022-08-11T14:24:39;4.32;;;1.50;;
29568;SDS011;16501;51.462;14.346;2022-08-11T14:27:06;5.90;;;1.48;;
29568;SDS011;16501;51.462;14.346;2022-08-11T14:29:35;7.57;;;1.55;;
29568;SDS011;16501;51.462;14.346;2022-08-11T14:32:03;5.78;;;1.75;;
29568;SDS011;16501;51.462;14.346;2022-08-11T14:34:31;4.32;;;1.90;;
29568;SDS011;16501;51.462;14.346;2022-08-11T14:36:59;1.65;;;1.48;;
29568;SDS011;16501;51.462;14.346;2022-08-11T14:39:33;4.95;;;1.20;;
29568;SDS011;16501;51.462;14.346;2022-08-11T14:42:03;2.28;;;1.42;;
29568;SDS011;16501;51.462;14.346;2022-08-11T14:44:50;3.30;;;1.42;;
29568;SDS011;16501;51.462;14.346;2022-08-11T14:47:40;2.13;;;1.42;;
29568;SDS011;16501;51.462;14.346;2022-08-11T14:50:10;4.43;;;1.60;;
29568;SDS011;16501;51.462;14.346;2022-08-11T14:52:47;5.15;;;1.52;;
29568;SDS011;16501;51.462;14.346;2022-08-11T14:55:19;2.75;;;1.40;;
29568;SDS011;16501;51.462;14.346;2022-08-11T14:58:07;5.47;;;1.05;;
29568;SDS011;16501;51.462;14.346;2022-08-11T15:00:34;2.05;;;1.10;;
29568;SDS011;16501;51.462;14.346;2022-08-11T15:03:02;4.65;;;1.20;;
29568;SDS011;16501;51.462;14.346;2022-08-11T15:05:56;7.85;;;1.10;;
29568;SDS011;16501;51.462;14.346;2022-08-11T15:08:22;2.28;;;1.27;;
29568;SDS011;16501;51.462;14.346;2022-08-11T15:11:11;6.30;;;1.20;;
29568;SDS011;16501;51.462;14.346;2022-08-11T15:14:00;3.53;;;1.10;;
29568;SDS011;16501;51.462;14.346;2022-08-11T15:16:27;1.75;;;1.27;;
29568;SDS011;16501;51.462;14.346;2022-08-11T15:19:12;6.65;;;1.10;;
29568;SDS011;16501;51.462;14.346;2022-08-11T15:21:39;6.32;;;1.20;;
29568;SDS011;16501;51.462;14.346;2022-08-11T15:24:24;4.30;;;1.35;;
29568;SDS011;16501;51.462;14.346;2022-08-11T15:26:50;2.72;;;1.50;;
29568;SDS011;16501;51.462;14.346;2022-08-11T15:29:36;2.28;;;1.08;;
29568;SDS011;16501;51.462;14.346;2022-08-11T15:32:40;2.40;;;1.10;;
29568;SDS011;16501;51.462;14.346;2022-08-11T15:35:26;2.75;;;1.20;;
29568;SDS011;16501;51.462;14.346;2022-08-11T15:38:11;4.32;;;1.15;;
29568;SDS011;16501;51.462;14.346;2022-08-11T15:40:39;3.72;;;1.30;;
29568;SDS011;16501;51.462;14.346;2022-08-11T15:43:30;1.80;;;1.10;;
29568;SDS011;16501;51.462;14.346;2022-08-11T15:49:00;1.85;;;1.10;;
29568;SDS011;16501;51.462;14.346;2022-08-11T15:54:16;2.75;;;1.10;;
29568;SDS011;16501;51.462;14.346;2022-08-11T15:56:44;2.70;;;1.33;;
29568;SDS011;16501;51.462;14.346;2022-08-11T15:59:13;10.27;;;1.27;;
29568;SDS011;16501;51.462;14.346;2022-08-11T16:01:59;2.63;;;1.00;;
29568;SDS011;16501;51.462;14.346;2022-08-11T16:04:46;1.50;;;1.02;;
29568;SDS011;16501;51.462;14.346;2022-08-11T16:07:14;2.85;;;1.30;;
29568;SDS011;16501;51.462;14.346;2022-08-11T16:09:49;5.28;;;1.67;;
29568;SDS011;16501;51.462;14.346;2022-08-11T16:12:21;2.40;;;1.50;;
29568;SDS011;16501;51.462;14.346;2022-08-11T16:14:50;1.52;;;1.13;;
29568;SDS011;16501;51.462;14.346;2022-08-11T16:17:39;2.38;;;1.40;;
29568;SDS011;16501;51.462;14.346;2022-08-11T16:20:09;5.90;;;1.35;;
29568;SDS011;16501;51.462;14.346;2022-08-11T16:22:36;2.10;;;1.48;;
29568;SDS011;16501;51.462;14.346;2022-08-11T16:25:21;3.20;;;1.65;;
29568;SDS011;16501;51.462;14.346;2022-08-11T16:27:49;3.53;;;1.20;;
29568;SDS011;16501;51.462;14.346;2022-08-11T16:30:18;2.85;;;1.35;;
29568;SDS011;16501;51.462;14.346;2022-08-11T16:32:45;3.60;;;1.33;;
29568;SDS011;16501;51.462;14.346;2022-08-11T16:35:17;3.08;;;1.40;;
29568;SDS011;16501;51.462;14.346;2022-08-11T16:38:03;4.93;;;1.30;;
29568;SDS011;16501;51.462;14.346;2022-08-11T16:40:51;1.73;;;1.40;;
29568;SDS011;16501;51.462;14.346;2022-08-11T16:43:18;3.10;;;1.33;;
29568;SDS011;16501;51.462;14.346;2022-08-11T16:46:06;2.63;;;1.35;;
29568;SDS011;16501;51.462;14.346;2022-08-11T16:48:55;5.32;;;1.60;;
29568;SDS011;16501;51.462;14.346;2022-08-11T16:51:24;5.75;;;1.92;;
29568;SDS011;16501;51.462;14.346;2022-08-11T16:53:50;2.47;;;1.27;;
29568;SDS011;16501;51.462;14.346;2022-08-11T16:56:18;6.00;;;1.95;;
29568;SDS011;16501;51.462;14.346;2022-08-11T16:58:46;2.50;;;1.38;;
29568;SDS011;16501;51.462;14.346;2022-08-11T17:01:36;3.25;;;1.15;;
29568;SDS011;16501;51.462;14.346;2022-08-11T17:04:06;5.22;;;1.75;;
29568;SDS011;16501;51.462;14.346;2022-08-11T17:06:54;1.27;;;1.17;;
29568;SDS011;16501;51.462;14.346;2022-08-11T17:09:40;4.78;;;1.60;;
29568;SDS011;16501;51.462;14.346;2022-08-11T17:12:28;2.50;;;1.70;;
29568;SDS011;16501;51.462;14.346;2022-08-11T17:15:17;2.20;;;1.27;;
29568;SDS011;16501;51.462;14.346;2022-08-11T17:18:05;3.38;;;1.42;;
29568;SDS011;16501;51.462;14.346;2022-08-11T17:20:32;2.42;;;1.00;;
29568;SDS011;16501;51.462;14.346;2022-08-11T17:22:59;5.88;;;1.73;;
29568;SDS011;16501;51.462;14.346;2022-08-11T17:26:04;1.50;;;1.20;;
29568;SDS011;16501;51.462;14.346;2022-08-11T17:28:30;3.58;;;1.88;;
29568;SDS011;16501;51.462;14.346;2022-08-11T17:30:58;6.80;;;1.60;;
29568;SDS011;16501;51.462;14.346;2022-08-11T17:33:44;8.55;;;1.50;;
29568;SDS011;16501;51.462;14.346;2022-08-11T17:36:29;3.10;;;1.60;;
29568;SDS011;16501;51.462;14.346;2022-08-11T17:38:55;3.20;;;2.03;;
29568;SDS011;16501;51.462;14.346;2022-08-11T17:41:24;3.45;;;1.42;;
29568;SDS011;16501;51.462;14.346;2022-08-11T17:44:09;4.22;;;1.25;;
29568;SDS011;16501;51.462;14.346;2022-08-11T17:46:53;2.25;;;1.17;;
29568;SDS011;16501;51.462;14.346;2022-08-11T17:49:39;3.90;;;1.40;;
29568;SDS011;16501;51.462;14.346;2022-08-11T17:52:06;2.03;;;1.40;;
29568;SDS011;16501;51.462;14.346;2022-08-11T17:54:49;3.60;;;1.35;;
29568;SDS011;16501;51.462;14.346;2022-08-11T17:57:35;1.80;;;1.30;;
29568;SDS011;16501;51.462;14.346;2022-08-11T18:00:22;3.50;;;1.73;;
29568;SDS011;16501;51.462;14.346;2022-08-11T18:02:50;6.25;;;1.45;;
29568;SDS011;16501;51.462;14.346;2022-08-11T18:05:37;3.47;;;1.48;;
29568;SDS011;16501;51.462;14.346;2022-08-11T18:08:07;2.75;;;1.63;;
29568;SDS011;16501;51.462;14.346;2022-08-11T18:10:54;2.08;;;1.33;;
29568;SDS011;16501;51.462;14.346;2022-08-11T18:13:39;3.08;;;1.70;;
29568;SDS011;16501;51.462;14.346;2022-08-11T18:16:25;3.83;;;1.80;;
29568;SDS011;16501;51.462;14.346;2022-08-11T18:19:09;3.80;;;1.83;;
29568;SDS011;16501;51.462;14.346;2022-08-11T18:22:00;2.42;;;1.60;;
29568;SDS011;16501;51.462;14.346;2022-08-11T18:24:50;5.97;;;1.52;;
29568;SDS011;16501;51.462;14.346;2022-08-11T18:27:39;2.10;;;1.23;;
29568;SDS011;16501;51.462;14.346;2022-08-11T18:30:26;2.88;;;1.48;;
29568;SDS011;16501;51.462;14.346;2022-08-11T18:33:15;4.90;;;1.70;;
29568;SDS011;16501;51.462;14.346;2022-08-11T18:36:03;6.70;;;1.40;;
29568;SDS011;16501;51.462;14.346;2022-08-11T18:38:48;4.32;;;1.60;;
29568;SDS011;16501;51.462;14.346;2022-08-11T18:41:34;4.10;;;1.50;;
29568;SDS011;16501;51.462;14.346;2022-08-11T18:44:20;7.35;;;1.70;;
29568;SDS011;16501;51.462;14.346;2022-08-11T18:47:09;13.35;;;2.05;;
29568;SDS011;16501;51.462;14.346;2022-08-11T18:49:55;6.65;;;2.03;;
29568;SDS011;16501;51.462;14.346;2022-08-11T18:52:42;4.72;;;1.50;;
29568;SDS011;16501;51.462;14.346;2022-08-11T18:55:27;10.70;;;1.63;;
29568;SDS011;16501;51.462;14.346;2022-08-11T18:58:14;3.75;;;1.73;;
29568;SDS011;16501;51.462;14.346;2022-08-11T19:01:02;7.45;;;1.52;;
29568;SDS011;16501;51.462;14.346;2022-08-11T19:03:52;4.95;;;1.77;;
29568;SDS011;16501;51.462;14.346;2022-08-11T19:06:37;7.65;;;1.88;;
29568;SDS011;16501;51.462;14.346;2022-08-11T19:09:24;5.57;;;1.45;;
29568;SDS011;16501;51.462;14.346;2022-08-11T19:12:09;1.48;;;1.38;;
29568;SDS011;16501;51.462;14.346;2022-08-11T19:14:55;8.30;;;1.60;;
29568;SDS011;16501;51.462;14.346;2022-08-11T19:17:42;4.82;;;1.70;;
29568;SDS011;16501;51.462;14.346;2022-08-11T19:20:29;5.68;;;2.63;;
29568;SDS011;16501;51.462;14.346;2022-08-11T19:23:16;2.80;;;1.50;;
29568;SDS011;16501;51.462;14.346;2022-08-11T19:26:03;6.25;;;1.67;;
29568;SDS011;16501;51.462;14.346;2022-08-11T19:28:50;3.83;;;1.70;;
29568;SDS011;16501;51.462;14.346;2022-08-11T19:31:35;4.80;;;2.00;;
29568;SDS011;16501;51.462;14.346;2022-08-11T19:34:21;3.22;;;1.70;;
29568;SDS011;16501;51.462;14.346;2022-08-11T19:37:08;1.95;;;1.42;;
29568;SDS011;16501;51.462;14.346;2022-08-11T19:39:55;2.83;;;1.52;;
29568;SDS011;16501;51.462;14.346;2022-08-11T19:42:43;2.17;;;1.58;;
29568;SDS011;16501;51.462;14.346;2022-08-11T19:45:29;4.45;;;1.95;;
29568;SDS011;16501;51.462;14.346;2022-08-11T19:48:15;3.42;;;1.50;;
29568;SDS011;16501;51.462;14.346;2022-08-11T19:50:59;7.15;;;1.60;;
29568;SDS011;16501;51.462;14.346;2022-08-11T19:53:44;2.13;;;1.40;;
29568;SDS011;16501;51.462;14.346;2022-08-11T19:56:32;4.32;;;1.90;;
29568;SDS011;16501;51.462;14.346;2022-08-11T19:59:17;6.32;;;1.70;;
29568;SDS011;16501;51.462;14.346;2022-08-11T20:02:01;3.15;;;1.52;;
29568;SDS011;16501;51.462;14.346;2022-08-11T20:04:45;2.80;;;1.85;;
29568;SDS011;16501;51.462;14.346;2022-08-11T20:07:29;1.95;;;1.38;;